sensor_id;sensor_type;location;lat;lon;timestamp;temperature;humidity
16102;DHT22;56411;52.964;10.540;2023-09-07T00:01:34;15.50;99.90
16102;DHT22;56411;52.964;10.540;2023-09-07T00:04:02;15.50;99.90
16102;DHT22;56411;52.964;10.540;2023-09-07T00:06:33;15.40;99.90
16102;DHT22;56411;52.964;10.540;2023-09-07T00:09:02;15.40;99.90
16102;DHT22;56411;52.964;10.540;2023-09-07T00:11:32;15.40;99.90
16102;DHT22;56411;52.964;10.540;2023-09-07T00:13:59;15.30;99.90
16102;DHT22;56411;52.964;10.540;2023-09-07T00:16:26;15.30;99.90
16102;DHT22;56411;52.964;10.540;2023-09-07T00:18:53;15.30;99.90
16102;DHT22;56411;52.964;10.540;2023-09-07T00:21:20;15.30;99.90
16102;DHT22;56411;52.964;10.540;2023-09-07T00:23:48;15.20;99.90
16102;DHT22;56411;52.964;10.540;2023-09-07T00:26:15;15.20;99.90
16102;DHT22;56411;52.964;10.540;2023-09-07T00:28:42;15.20;99.90
16102;DHT22;56411;52.964;10.540;2023-09-07T00:31:09;15.10;99.90
16102;DHT22;56411;52.964;10.540;2023-09-07T00:33:36;15.10;99.90
16102;DHT22;56411;52.964;10.540;2023-09-07T00:36:04;15.00;99.90
16102;DHT22;56411;52.964;10.540;2023-09-07T00:38:31;15.10;99.90
16102;DHT22;56411;52.964;10.540;2023-09-07T00:40:59;15.00;99.90
16102;DHT22;56411;52.964;10.540;2023-09-07T00:43:26;15.00;99.90
16102;DHT22;56411;52.964;10.540;2023-09-07T00:45:53;15.00;99.90
16102;DHT22;56411;52.964;10.540;2023-09-07T00:48:20;15.00;99.90
16102;DHT22;56411;52.964;10.540;2023-09-07T00:50:48;14.90;99.90
16102;DHT22;56411;52.964;10.540;2023-09-07T00:53:15;14.80;99.90
16102;DHT22;56411;52.964;10.540;2023-09-07T00:55:44;14.80;99.90
16102;DHT22;56411;52.964;10.540;2023-09-07T00:58:13;14.80;99.90
16102;DHT22;56411;52.964;10.540;2023-09-07T01:00:40;14.80;99.90
16102;DHT22;56411;52.964;10.540;2023-09-07T01:03:08;14.80;99.90
16102;DHT22;56411;52.964;10.540;2023-09-07T01:05:41;14.80;99.90
16102;DHT22;56411;52.964;10.540;2023-09-07T01:08:15;14.70;99.90
16102;DHT22;56411;52.964;10.540;2023-09-07T01:10:44;14.70;99.90
16102;DHT22;56411;52.964;10.540;2023-09-07T01:13:13;14.70;99.90
16102;DHT22;56411;52.964;10.540;2023-09-07T01:15:40;14.60;99.90
16102;DHT22;56411;52.964;10.540;2023-09-07T01:18:08;14.60;99.90
16102;DHT22;56411;52.964;10.540;2023-09-07T01:20:37;14.50;99.90
16102;DHT22;56411;52.964;10.540;2023-09-07T01:23:07;14.60;99.90
16102;DHT22;56411;52.964;10.540;2023-09-07T01:25:35;14.50;99.90
16102;DHT22;56411;52.964;10.540;2023-09-07T01:28:03;14.50;99.90
16102;DHT22;56411;52.964;10.540;2023-09-07T01:30:30;14.40;99.90
16102;DHT22;56411;52.964;10.540;2023-09-07T01:32:57;14.40;99.90
16102;DHT22;56411;52.964;10.540;2023-09-07T01:35:25;14.40;99.90
16102;DHT22;56411;52.964;10.540;2023-09-07T01:37:53;14.40;99.90
16102;DHT22;56411;52.964;10.540;2023-09-07T01:40:21;14.30;99.90
16102;DHT22;56411;52.964;10.540;2023-09-07T01:42:48;14.30;99.90
16102;DHT22;56411;52.964;10.540;2023-09-07T01:45:15;14.40;99.90
16102;DHT22;56411;52.964;10.540;2023-09-07T01:47:42;14.30;99.90
16102;DHT22;56411;52.964;10.540;2023-09-07T01:50:09;14.40;99.90
16102;DHT22;56411;52.964;10.540;2023-09-07T01:52:36;14.50;99.90
16102;DHT22;56411;52.964;10.540;2023-09-07T01:55:04;14.50;99.90
16102;DHT22;56411;52.964;10.540;2023-09-07T01:57:32;14.50;99.90
16102;DHT22;56411;52.964;10.540;2023-09-07T01:59:59;14.50;99.90
16102;DHT22;56411;52.964;10.540;2023-09-07T02:02:26;14.50;99.90
16102;DHT22;56411;52.964;10.540;2023-09-07T02:04:53;14.60;99.90
16102;DHT22;56411;52.964;10.540;2023-09-07T02:07:20;14.50;99.90
16102;DHT22;56411;52.964;10.540;2023-09-07T02:09:47;14.60;99.90
16102;DHT22;56411;52.964;10.540;2023-09-07T02:12:14;14.60;99.90
16102;DHT22;56411;52.964;10.540;2023-09-07T02:14:42;14.60;99.90
16102;DHT22;56411;52.964;10.540;2023-09-07T02:17:09;14.50;99.90
16102;DHT22;56411;52.964;10.540;2023-09-07T02:19:39;14.50;99.90
16102;DHT22;56411;52.964;10.540;2023-09-07T02:22:06;14.50;99.90
16102;DHT22;56411;52.964;10.540;2023-09-07T02:24:33;14.50;99.90
16102;DHT22;56411;52.964;10.540;2023-09-07T02:27:00;14.40;99.90
16102;DHT22;56411;52.964;10.540;2023-09-07T02:29:27;14.40;99.90
16102;DHT22;56411;52.964;10.540;2023-09-07T02:31:55;14.40;99.90
16102;DHT22;56411;52.964;10.540;2023-09-07T02:34:23;14.40;99.90
16102;DHT22;56411;52.964;10.540;2023-09-07T02:36:50;14.30;99.90
16102;DHT22;56411;52.964;10.540;2023-09-07T02:39:17;14.30;99.90
16102;DHT22;56411;52.964;10.540;2023-09-07T02:41:44;14.30;99.90
16102;DHT22;56411;52.964;10.540;2023-09-07T02:44:11;14.30;99.90
16102;DHT22;56411;52.964;10.540;2023-09-07T02:46:38;14.40;99.90
16102;DHT22;56411;52.964;10.540;2023-09-07T02:49:07;14.30;99.90
16102;DHT22;56411;52.964;10.540;2023-09-07T02:51:34;14.30;99.90
16102;DHT22;56411;52.964;10.540;2023-09-07T02:54:02;14.30;99.90
16102;DHT22;56411;52.964;10.540;2023-09-07T02:56:29;14.20;99.90
16102;DHT22;56411;52.964;10.540;2023-09-07T02:58:56;14.20;99.90
16102;DHT22;56411;52.964;10.540;2023-09-07T03:01:23;14.30;99.90
16102;DHT22;56411;52.964;10.540;2023-09-07T03:03:50;14.20;99.90
16102;DHT22;56411;52.964;10.540;2023-09-07T03:06:19;14.30;99.90
16102;DHT22;56411;52.964;10.540;2023-09-07T03:08:46;14.20;99.90
16102;DHT22;56411;52.964;10.540;2023-09-07T03:11:14;14.20;99.90
16102;DHT22;56411;52.964;10.540;2023-09-07T03:13:41;14.10;99.90
16102;DHT22;56411;52.964;10.540;2023-09-07T03:16:09;14.20;99.90
16102;DHT22;56411;52.964;10.540;2023-09-07T03:18:35;14.20;99.90
16102;DHT22;56411;52.964;10.540;2023-09-07T03:21:03;14.10;99.90
16102;DHT22;56411;52.964;10.540;2023-09-07T03:23:32;14.10;99.90
16102;DHT22;56411;52.964;10.540;2023-09-07T03:25:59;14.10;99.90
16102;DHT22;56411;52.964;10.540;2023-09-07T03:28:27;14.00;99.90
16102;DHT22;56411;52.964;10.540;2023-09-07T03:30:54;14.00;99.90
16102;DHT22;56411;52.964;10.540;2023-09-07T03:33:21;14.00;99.90
16102;DHT22;56411;52.964;10.540;2023-09-07T03:35:48;14.00;99.90
16102;DHT22;56411;52.964;10.540;2023-09-07T03:38:17;14.00;99.90
16102;DHT22;56411;52.964;10.540;2023-09-07T03:40:45;14.00;99.90
16102;DHT22;56411;52.964;10.540;2023-09-07T03:43:12;13.90;99.90
16102;DHT22;56411;52.964;10.540;2023-09-07T03:45:39;13.90;99.90
16102;DHT22;56411;52.964;10.540;2023-09-07T03:48:06;13.80;99.90
16102;DHT22;56411;52.964;10.540;2023-09-07T03:50:35;13.80;99.90
16102;DHT22;56411;52.964;10.540;2023-09-07T03:53:03;13.70;99.90
16102;DHT22;56411;52.964;10.540;2023-09-07T03:55:33;13.70;99.90
16102;DHT22;56411;52.964;10.540;2023-09-07T03:58:08;13.70;99.90
16102;DHT22;56411;52.964;10.540;2023-09-07T04:00:38;13.80;99.90
16102;DHT22;56411;52.964;10.540;2023-09-07T04:03:06;13.80;99.90
16102;DHT22;56411;52.964;10.540;2023-09-07T04:05:33;13.70;99.90
16102;DHT22;56411;52.964;10.540;2023-09-07T04:08:00;13.70;99.90
16102;DHT22;56411;52.964;10.540;2023-09-07T04:10:28;13.70;99.90
16102;DHT22;56411;52.964;10.540;2023-09-07T04:12:56;13.70;99.90
16102;DHT22;56411;52.964;10.540;2023-09-07T04:15:24;13.70;99.90
16102;DHT22;56411;52.964;10.540;2023-09-07T04:17:53;13.70;99.90
16102;DHT22;56411;52.964;10.540;2023-09-07T04:20:20;13.70;99.90
16102;DHT22;56411;52.964;10.540;2023-09-07T04:22:48;13.60;99.90
16102;DHT22;56411;52.964;10.540;2023-09-07T04:25:15;13.60;99.90
16102;DHT22;56411;52.964;10.540;2023-09-07T04:27:42;13.60;99.90
16102;DHT22;56411;52.964;10.540;2023-09-07T04:30:10;13.50;99.90
16102;DHT22;56411;52.964;10.540;2023-09-07T04:32:38;13.50;99.90
16102;DHT22;56411;52.964;10.540;2023-09-07T04:35:06;13.40;99.90
16102;DHT22;56411;52.964;10.540;2023-09-07T04:37:33;13.40;99.90
16102;DHT22;56411;52.964;10.540;2023-09-07T04:40:00;13.40;99.90
16102;DHT22;56411;52.964;10.540;2023-09-07T04:42:28;13.40;99.90
16102;DHT22;56411;52.964;10.540;2023-09-07T04:44:55;13.40;99.90
16102;DHT22;56411;52.964;10.540;2023-09-07T04:47:21;13.40;99.90
16102;DHT22;56411;52.964;10.540;2023-09-07T04:49:50;13.40;99.90
16102;DHT22;56411;52.964;10.540;2023-09-07T04:52:17;13.50;99.90
16102;DHT22;56411;52.964;10.540;2023-09-07T04:54:44;13.50;99.90
16102;DHT22;56411;52.964;10.540;2023-09-07T04:57:11;13.50;99.90
16102;DHT22;56411;52.964;10.540;2023-09-07T04:59:38;13.60;99.90
16102;DHT22;56411;52.964;10.540;2023-09-07T05:02:05;13.60;99.90
16102;DHT22;56411;52.964;10.540;2023-09-07T05:04:32;13.60;99.90
16102;DHT22;56411;52.964;10.540;2023-09-07T05:07:01;13.70;99.90
16102;DHT22;56411;52.964;10.540;2023-09-07T05:09:27;13.70;99.90
16102;DHT22;56411;52.964;10.540;2023-09-07T05:11:55;13.80;99.90
16102;DHT22;56411;52.964;10.540;2023-09-07T05:14:23;13.80;99.90
16102;DHT22;56411;52.964;10.540;2023-09-07T05:16:50;13.80;99.90
16102;DHT22;56411;52.964;10.540;2023-09-07T05:19:17;13.80;99.90
16102;DHT22;56411;52.964;10.540;2023-09-07T05:21:43;13.80;99.90
16102;DHT22;56411;52.964;10.540;2023-09-07T05:24:14;13.80;99.90
16102;DHT22;56411;52.964;10.540;2023-09-07T05:26:41;13.90;99.90
16102;DHT22;56411;52.964;10.540;2023-09-07T05:29:09;13.90;99.90
16102;DHT22;56411;52.964;10.540;2023-09-07T05:31:36;13.90;99.90
16102;DHT22;56411;52.964;10.540;2023-09-07T05:34:03;13.90;99.90
16102;DHT22;56411;52.964;10.540;2023-09-07T05:36:30;13.90;99.90
16102;DHT22;56411;52.964;10.540;2023-09-07T05:38:57;14.00;99.90
16102;DHT22;56411;52.964;10.540;2023-09-07T05:41:26;14.00;99.90
16102;DHT22;56411;52.964;10.540;2023-09-07T05:43:53;14.10;99.90
16102;DHT22;56411;52.964;10.540;2023-09-07T05:46:20;14.20;99.90
16102;DHT22;56411;52.964;10.540;2023-09-07T05:48:47;14.40;99.90
16102;DHT22;56411;52.964;10.540;2023-09-07T05:51:14;14.40;99.90
16102;DHT22;56411;52.964;10.540;2023-09-07T05:53:41;14.50;99.90
16102;DHT22;56411;52.964;10.540;2023-09-07T05:56:08;14.50;99.90
16102;DHT22;56411;52.964;10.540;2023-09-07T05:58:36;14.60;99.90
16102;DHT22;56411;52.964;10.540;2023-09-07T06:01:03;14.70;99.90
16102;DHT22;56411;52.964;10.540;2023-09-07T06:03:31;14.80;99.90
16102;DHT22;56411;52.964;10.540;2023-09-07T06:06:00;14.90;99.90
16102;DHT22;56411;52.964;10.540;2023-09-07T06:08:28;15.00;99.90
16102;DHT22;56411;52.964;10.540;2023-09-07T06:10:55;15.10;99.90
16102;DHT22;56411;52.964;10.540;2023-09-07T06:13:22;15.20;99.90
16102;DHT22;56411;52.964;10.540;2023-09-07T06:15:50;15.30;99.90
16102;DHT22;56411;52.964;10.540;2023-09-07T06:18:17;15.40;99.90
16102;DHT22;56411;52.964;10.540;2023-09-07T06:20:44;15.50;99.90
16102;DHT22;56411;52.964;10.540;2023-09-07T06:23:12;15.60;99.90
16102;DHT22;56411;52.964;10.540;2023-09-07T06:25:39;15.70;99.90
16102;DHT22;56411;52.964;10.540;2023-09-07T06:28:06;15.80;99.90
16102;DHT22;56411;52.964;10.540;2023-09-07T06:30:33;15.90;99.90
16102;DHT22;56411;52.964;10.540;2023-09-07T06:33:02;16.00;99.90
16102;DHT22;56411;52.964;10.540;2023-09-07T06:35:29;16.00;99.90
16102;DHT22;56411;52.964;10.540;2023-09-07T06:37:55;16.10;99.90
16102;DHT22;56411;52.964;10.540;2023-09-07T06:40:22;16.20;99.90
16102;DHT22;56411;52.964;10.540;2023-09-07T06:42:51;16.30;99.90
16102;DHT22;56411;52.964;10.540;2023-09-07T06:45:18;16.40;99.90
16102;DHT22;56411;52.964;10.540;2023-09-07T06:47:45;16.50;99.90
16102;DHT22;56411;52.964;10.540;2023-09-07T06:50:14;16.70;99.90
16102;DHT22;56411;52.964;10.540;2023-09-07T06:52:40;16.80;99.90
16102;DHT22;56411;52.964;10.540;2023-09-07T06:55:08;16.90;99.90
16102;DHT22;56411;52.964;10.540;2023-09-07T06:57:34;17.10;99.90
16102;DHT22;56411;52.964;10.540;2023-09-07T07:00:02;17.20;99.90
16102;DHT22;56411;52.964;10.540;2023-09-07T07:02:31;17.30;99.90
16102;DHT22;56411;52.964;10.540;2023-09-07T07:04:58;17.40;99.90
16102;DHT22;56411;52.964;10.540;2023-09-07T07:07:26;17.50;99.90
16102;DHT22;56411;52.964;10.540;2023-09-07T07:09:53;17.60;99.90
16102;DHT22;56411;52.964;10.540;2023-09-07T07:12:20;17.80;99.90
16102;DHT22;56411;52.964;10.540;2023-09-07T07:14:47;17.90;99.90
16102;DHT22;56411;52.964;10.540;2023-09-07T07:17:14;18.00;99.90
16102;DHT22;56411;52.964;10.540;2023-09-07T07:19:41;18.10;99.90
16102;DHT22;56411;52.964;10.540;2023-09-07T07:22:08;18.30;99.90
16102;DHT22;56411;52.964;10.540;2023-09-07T07:24:37;18.40;99.90
16102;DHT22;56411;52.964;10.540;2023-09-07T07:27:04;18.50;99.90
16102;DHT22;56411;52.964;10.540;2023-09-07T07:29:30;18.50;99.90
16102;DHT22;56411;52.964;10.540;2023-09-07T07:31:57;18.60;99.90
16102;DHT22;56411;52.964;10.540;2023-09-07T07:34:25;18.70;99.90
16102;DHT22;56411;52.964;10.540;2023-09-07T07:36:52;18.90;99.90
16102;DHT22;56411;52.964;10.540;2023-09-07T07:39:19;19.00;99.90
16102;DHT22;56411;52.964;10.540;2023-09-07T07:41:47;19.10;99.90
16102;DHT22;56411;52.964;10.540;2023-09-07T07:44:14;19.20;99.90
16102;DHT22;56411;52.964;10.540;2023-09-07T07:46:41;19.30;99.90
16102;DHT22;56411;52.964;10.540;2023-09-07T07:49:08;19.40;99.90
16102;DHT22;56411;52.964;10.540;2023-09-07T07:51:36;19.50;99.90
16102;DHT22;56411;52.964;10.540;2023-09-07T07:54:04;19.60;99.90
16102;DHT22;56411;52.964;10.540;2023-09-07T07:56:31;19.70;99.90
16102;DHT22;56411;52.964;10.540;2023-09-07T07:58:59;19.80;99.90
16102;DHT22;56411;52.964;10.540;2023-09-07T08:01:26;19.80;99.90
16102;DHT22;56411;52.964;10.540;2023-09-07T08:03:55;19.90;99.90
16102;DHT22;56411;52.964;10.540;2023-09-07T08:06:22;20.00;99.90
16102;DHT22;56411;52.964;10.540;2023-09-07T08:08:49;20.20;99.90
16102;DHT22;56411;52.964;10.540;2023-09-07T08:11:15;20.20;99.90
16102;DHT22;56411;52.964;10.540;2023-09-07T08:13:46;20.40;99.90
16102;DHT22;56411;52.964;10.540;2023-09-07T08:16:15;20.40;99.90
16102;DHT22;56411;52.964;10.540;2023-09-07T08:18:43;20.50;99.90
16102;DHT22;56411;52.964;10.540;2023-09-07T08:21:11;20.70;99.90
16102;DHT22;56411;52.964;10.540;2023-09-07T08:23:38;20.80;99.90
16102;DHT22;56411;52.964;10.540;2023-09-07T08:26:05;20.90;99.90
16102;DHT22;56411;52.964;10.540;2023-09-07T08:28:35;21.00;99.90
16102;DHT22;56411;52.964;10.540;2023-09-07T08:31:02;21.20;99.90
16102;DHT22;56411;52.964;10.540;2023-09-07T08:33:31;21.30;99.90
16102;DHT22;56411;52.964;10.540;2023-09-07T08:36:06;21.40;99.90
16102;DHT22;56411;52.964;10.540;2023-09-07T08:38:34;21.40;99.90
16102;DHT22;56411;52.964;10.540;2023-09-07T08:41:02;21.50;99.90
16102;DHT22;56411;52.964;10.540;2023-09-07T08:43:33;21.60;99.90
16102;DHT22;56411;52.964;10.540;2023-09-07T08:46:13;21.70;99.90
16102;DHT22;56411;52.964;10.540;2023-09-07T08:48:42;21.80;99.90
16102;DHT22;56411;52.964;10.540;2023-09-07T08:51:12;21.90;99.90
16102;DHT22;56411;52.964;10.540;2023-09-07T08:53:40;22.00;99.90
16102;DHT22;56411;52.964;10.540;2023-09-07T08:56:12;22.10;99.90
16102;DHT22;56411;52.964;10.540;2023-09-07T08:58:39;22.20;99.90
16102;DHT22;56411;52.964;10.540;2023-09-07T09:01:06;22.30;99.90
16102;DHT22;56411;52.964;10.540;2023-09-07T09:03:35;22.50;99.90
16102;DHT22;56411;52.964;10.540;2023-09-07T09:06:03;22.60;99.90
16102;DHT22;56411;52.964;10.540;2023-09-07T09:08:41;22.60;99.90
16102;DHT22;56411;52.964;10.540;2023-09-07T09:11:08;22.70;99.90
16102;DHT22;56411;52.964;10.540;2023-09-07T09:13:36;22.90;99.90
16102;DHT22;56411;52.964;10.540;2023-09-07T09:16:03;23.00;99.90
16102;DHT22;56411;52.964;10.540;2023-09-07T09:18:30;23.10;99.90
16102;DHT22;56411;52.964;10.540;2023-09-07T09:20:57;23.20;99.90
16102;DHT22;56411;52.964;10.540;2023-09-07T09:23:30;23.40;99.90
16102;DHT22;56411;52.964;10.540;2023-09-07T09:25:59;23.50;99.90
16102;DHT22;56411;52.964;10.540;2023-09-07T09:28:26;23.50;99.90
16102;DHT22;56411;52.964;10.540;2023-09-07T09:30:53;23.60;99.90
16102;DHT22;56411;52.964;10.540;2023-09-07T09:33:21;23.70;99.90
16102;DHT22;56411;52.964;10.540;2023-09-07T09:35:49;23.70;99.90
16102;DHT22;56411;52.964;10.540;2023-09-07T09:38:17;23.80;99.90
16102;DHT22;56411;52.964;10.540;2023-09-07T09:40:45;23.90;99.90
16102;DHT22;56411;52.964;10.540;2023-09-07T09:43:12;24.00;99.90
16102;DHT22;56411;52.964;10.540;2023-09-07T09:45:40;24.10;99.90
16102;DHT22;56411;52.964;10.540;2023-09-07T09:48:07;24.20;99.90
16102;DHT22;56411;52.964;10.540;2023-09-07T09:50:35;24.30;99.90
16102;DHT22;56411;52.964;10.540;2023-09-07T09:53:05;24.40;99.90
16102;DHT22;56411;52.964;10.540;2023-09-07T09:55:33;24.50;99.90
16102;DHT22;56411;52.964;10.540;2023-09-07T09:58:02;24.50;99.90
16102;DHT22;56411;52.964;10.540;2023-09-07T10:00:31;24.50;99.90
16102;DHT22;56411;52.964;10.540;2023-09-07T10:03:07;24.70;99.90
16102;DHT22;56411;52.964;10.540;2023-09-07T10:05:36;24.70;99.90
16102;DHT22;56411;52.964;10.540;2023-09-07T10:08:08;24.80;99.90
16102;DHT22;56411;52.964;10.540;2023-09-07T10:10:36;24.80;99.90
16102;DHT22;56411;52.964;10.540;2023-09-07T10:13:05;25.00;99.90
16102;DHT22;56411;52.964;10.540;2023-09-07T10:15:33;25.00;99.90
16102;DHT22;56411;52.964;10.540;2023-09-07T10:18:09;25.10;99.90
16102;DHT22;56411;52.964;10.540;2023-09-07T10:20:54;25.20;99.90
16102;DHT22;56411;52.964;10.540;2023-09-07T10:23:35;25.30;99.90
16102;DHT22;56411;52.964;10.540;2023-09-07T10:26:03;25.40;99.90
16102;DHT22;56411;52.964;10.540;2023-09-07T10:28:32;25.40;99.90
16102;DHT22;56411;52.964;10.540;2023-09-07T10:31:00;25.60;99.90
16102;DHT22;56411;52.964;10.540;2023-09-07T10:33:29;25.80;99.90
16102;DHT22;56411;52.964;10.540;2023-09-07T10:35:56;26.10;99.90
16102;DHT22;56411;52.964;10.540;2023-09-07T10:38:23;26.30;99.90
16102;DHT22;56411;52.964;10.540;2023-09-07T10:40:56;26.30;99.90
16102;DHT22;56411;52.964;10.540;2023-09-07T10:43:24;26.50;99.90
16102;DHT22;56411;52.964;10.540;2023-09-07T10:45:53;26.70;99.90
16102;DHT22;56411;52.964;10.540;2023-09-07T10:48:20;26.70;99.90
16102;DHT22;56411;52.964;10.540;2023-09-07T10:50:47;26.90;99.90
16102;DHT22;56411;52.964;10.540;2023-09-07T10:53:24;27.00;99.90
16102;DHT22;56411;52.964;10.540;2023-09-07T10:55:51;27.10;99.90
16102;DHT22;56411;52.964;10.540;2023-09-07T10:58:25;27.40;99.90
16102;DHT22;56411;52.964;10.540;2023-09-07T11:00:54;27.90;99.90
16102;DHT22;56411;52.964;10.540;2023-09-07T11:03:21;28.50;99.90
16102;DHT22;56411;52.964;10.540;2023-09-07T11:05:48;29.10;99.90
16102;DHT22;56411;52.964;10.540;2023-09-07T11:08:18;29.40;99.90
16102;DHT22;56411;52.964;10.540;2023-09-07T11:10:45;30.00;99.90
16102;DHT22;56411;52.964;10.540;2023-09-07T11:13:12;29.90;99.90
16102;DHT22;56411;52.964;10.540;2023-09-07T11:15:39;30.60;99.90
16102;DHT22;56411;52.964;10.540;2023-09-07T11:18:10;31.20;99.90
16102;DHT22;56411;52.964;10.540;2023-09-07T11:20:37;31.80;99.90
16102;DHT22;56411;52.964;10.540;2023-09-07T11:23:05;32.60;99.90
16102;DHT22;56411;52.964;10.540;2023-09-07T11:25:36;32.60;99.90
16102;DHT22;56411;52.964;10.540;2023-09-07T11:28:04;33.20;99.90
16102;DHT22;56411;52.964;10.540;2023-09-07T11:30:31;33.50;99.90
16102;DHT22;56411;52.964;10.540;2023-09-07T11:33:01;33.40;99.90
16102;DHT22;56411;52.964;10.540;2023-09-07T11:35:29;33.50;99.90
16102;DHT22;56411;52.964;10.540;2023-09-07T11:37:56;33.90;99.90
16102;DHT22;56411;52.964;10.540;2023-09-07T11:40:25;34.30;99.90
16102;DHT22;56411;52.964;10.540;2023-09-07T11:42:52;34.30;99.90
16102;DHT22;56411;52.964;10.540;2023-09-07T11:45:19;34.70;99.90
16102;DHT22;56411;52.964;10.540;2023-09-07T11:47:46;35.00;99.90
16102;DHT22;56411;52.964;10.540;2023-09-07T11:50:16;34.90;99.90
16102;DHT22;56411;52.964;10.540;2023-09-07T11:52:44;35.00;99.90
16102;DHT22;56411;52.964;10.540;2023-09-07T11:55:14;34.90;99.90
16102;DHT22;56411;52.964;10.540;2023-09-07T11:57:41;36.10;99.90
16102;DHT22;56411;52.964;10.540;2023-09-07T12:00:09;36.60;99.40
16102;DHT22;56411;52.964;10.540;2023-09-07T12:02:37;36.60;98.90
16102;DHT22;56411;52.964;10.540;2023-09-07T12:05:05;36.70;97.60
16102;DHT22;56411;52.964;10.540;2023-09-07T12:07:33;36.90;97.30
16102;DHT22;56411;52.964;10.540;2023-09-07T12:10:02;37.20;96.70
16102;DHT22;56411;52.964;10.540;2023-09-07T12:12:29;36.20;96.80
16102;DHT22;56411;52.964;10.540;2023-09-07T12:14:56;36.70;96.20
16102;DHT22;56411;52.964;10.540;2023-09-07T12:17:23;37.50;95.40
16102;DHT22;56411;52.964;10.540;2023-09-07T12:19:50;38.00;95.20
16102;DHT22;56411;52.964;10.540;2023-09-07T12:22:17;38.10;94.60
16102;DHT22;56411;52.964;10.540;2023-09-07T12:24:44;37.90;93.80
16102;DHT22;56411;52.964;10.540;2023-09-07T12:27:13;37.70;93.70
16102;DHT22;56411;52.964;10.540;2023-09-07T12:29:40;38.00;93.40
16102;DHT22;56411;52.964;10.540;2023-09-07T12:32:07;38.20;91.90
16102;DHT22;56411;52.964;10.540;2023-09-07T12:34:34;37.80;91.80
16102;DHT22;56411;52.964;10.540;2023-09-07T12:37:01;37.90;92.40
16102;DHT22;56411;52.964;10.540;2023-09-07T12:39:30;37.30;91.80
16102;DHT22;56411;52.964;10.540;2023-09-07T12:41:57;36.20;92.30
16102;DHT22;56411;52.964;10.540;2023-09-07T12:44:25;35.70;92.10
16102;DHT22;56411;52.964;10.540;2023-09-07T12:46:52;35.80;91.90
16102;DHT22;56411;52.964;10.540;2023-09-07T12:49:19;36.20;92.30
16102;DHT22;56411;52.964;10.540;2023-09-07T12:51:46;37.00;91.90
16102;DHT22;56411;52.964;10.540;2023-09-07T12:54:13;37.30;90.40
16102;DHT22;56411;52.964;10.540;2023-09-07T12:56:40;36.60;90.30
16102;DHT22;56411;52.964;10.540;2023-09-07T12:59:07;37.10;90.80
16102;DHT22;56411;52.964;10.540;2023-09-07T13:01:36;37.70;89.30
16102;DHT22;56411;52.964;10.540;2023-09-07T13:04:03;37.00;89.00
16102;DHT22;56411;52.964;10.540;2023-09-07T13:06:30;37.50;87.30
16102;DHT22;56411;52.964;10.540;2023-09-07T13:08:57;37.20;86.00
16102;DHT22;56411;52.964;10.540;2023-09-07T13:11:24;37.20;87.60
16102;DHT22;56411;52.964;10.540;2023-09-07T13:13:51;37.70;84.60
16102;DHT22;56411;52.964;10.540;2023-09-07T13:16:18;38.30;85.70
16102;DHT22;56411;52.964;10.540;2023-09-07T13:18:46;38.20;82.60
16102;DHT22;56411;52.964;10.540;2023-09-07T13:21:13;38.30;80.10
16102;DHT22;56411;52.964;10.540;2023-09-07T13:23:40;38.90;81.20
16102;DHT22;56411;52.964;10.540;2023-09-07T13:26:08;39.00;80.20
16102;DHT22;56411;52.964;10.540;2023-09-07T13:28:35;39.00;79.30
16102;DHT22;56411;52.964;10.540;2023-09-07T13:31:02;38.40;78.60
16102;DHT22;56411;52.964;10.540;2023-09-07T13:33:29;38.80;78.00
16102;DHT22;56411;52.964;10.540;2023-09-07T13:35:58;38.30;77.00
16102;DHT22;56411;52.964;10.540;2023-09-07T13:38:25;38.40;76.10
16102;DHT22;56411;52.964;10.540;2023-09-07T13:40:52;37.90;76.20
16102;DHT22;56411;52.964;10.540;2023-09-07T13:43:18;38.10;75.60
16102;DHT22;56411;52.964;10.540;2023-09-07T13:45:45;37.90;75.40
16102;DHT22;56411;52.964;10.540;2023-09-07T13:48:14;37.90;76.30
16102;DHT22;56411;52.964;10.540;2023-09-07T13:50:41;38.30;77.40
16102;DHT22;56411;52.964;10.540;2023-09-07T13:53:10;39.50;75.00
16102;DHT22;56411;52.964;10.540;2023-09-07T13:55:37;39.30;73.40
16102;DHT22;56411;52.964;10.540;2023-09-07T13:58:05;38.90;73.60
16102;DHT22;56411;52.964;10.540;2023-09-07T14:00:32;39.60;76.20
16102;DHT22;56411;52.964;10.540;2023-09-07T14:02:59;40.00;73.40
16102;DHT22;56411;52.964;10.540;2023-09-07T14:05:26;39.70;73.90
16102;DHT22;56411;52.964;10.540;2023-09-07T14:07:53;40.00;72.80
16102;DHT22;56411;52.964;10.540;2023-09-07T14:10:23;40.50;73.80
16102;DHT22;56411;52.964;10.540;2023-09-07T14:12:50;40.10;71.30
16102;DHT22;56411;52.964;10.540;2023-09-07T14:15:17;40.10;72.20
16102;DHT22;56411;52.964;10.540;2023-09-07T14:17:44;39.90;71.00
16102;DHT22;56411;52.964;10.540;2023-09-07T14:20:12;40.10;70.70
16102;DHT22;56411;52.964;10.540;2023-09-07T14:22:39;39.80;70.30
16102;DHT22;56411;52.964;10.540;2023-09-07T14:25:07;39.90;69.40
16102;DHT22;56411;52.964;10.540;2023-09-07T14:27:35;40.20;70.50
16102;DHT22;56411;52.964;10.540;2023-09-07T14:30:02;39.70;69.50
16102;DHT22;56411;52.964;10.540;2023-09-07T14:32:29;40.00;71.00
16102;DHT22;56411;52.964;10.540;2023-09-07T14:34:56;40.30;70.40
16102;DHT22;56411;52.964;10.540;2023-09-07T14:37:24;40.30;70.00
16102;DHT22;56411;52.964;10.540;2023-09-07T14:39:51;40.70;69.70
16102;DHT22;56411;52.964;10.540;2023-09-07T14:42:23;40.80;69.60
16102;DHT22;56411;52.964;10.540;2023-09-07T14:44:51;40.80;69.10
16102;DHT22;56411;52.964;10.540;2023-09-07T14:47:18;39.80;70.10
16102;DHT22;56411;52.964;10.540;2023-09-07T14:49:51;38.90;72.00
16102;DHT22;56411;52.964;10.540;2023-09-07T14:52:18;38.60;72.90
16102;DHT22;56411;52.964;10.540;2023-09-07T14:54:47;39.10;74.60
16102;DHT22;56411;52.964;10.540;2023-09-07T14:57:14;39.60;71.90
16102;DHT22;56411;52.964;10.540;2023-09-07T14:59:41;39.80;71.80
16102;DHT22;56411;52.964;10.540;2023-09-07T15:02:10;39.50;71.60
16102;DHT22;56411;52.964;10.540;2023-09-07T15:04:37;39.80;72.80
16102;DHT22;56411;52.964;10.540;2023-09-07T15:07:04;40.10;72.10
16102;DHT22;56411;52.964;10.540;2023-09-07T15:09:31;40.00;71.70
16102;DHT22;56411;52.964;10.540;2023-09-07T15:11:58;39.30;71.40
16102;DHT22;56411;52.964;10.540;2023-09-07T15:14:25;39.00;71.80
16102;DHT22;56411;52.964;10.540;2023-09-07T15:16:53;38.90;73.20
16102;DHT22;56411;52.964;10.540;2023-09-07T15:19:21;39.30;72.60